Other Surface Observations
Issued by NWS Great Falls, MT

Home | Current Version | Previous Version | Text Only | Print | Product List | Glossary On
Versions: 1 2 3 4 5 6 7 8 9 10 11 12 13 14 15 16 17 18 19 20 21 22 23 24 25 26 27 28 29 30 31 32 33 34 35 36 37 38 39 40 41 42 43 44 45 46 47 48 49 50
000
SXUS55 KTFX 100214
OSOTFX
AREA AWOS OBSERVATIONS
NATIONAL WEATHER SERVICE GREAT FALLS MT
0714 PM MST FRI DEC 09 2016

METAR KPWD 100215Z AUTO 10004KT 7SM M24/M27 A3043 RMK PLENTYWOOD
METAR KPO1 100215Z AUTO 00000KT 10SM M23/M26 A3048 RMK POPLAR
METAR K1S3 100215Z AUTO 09008KT 10SM M16/M18 A3026 RMK FORSYTH
METAR KS71 100215Z AUTO 09009G16KT 8SM M16/M19 A3027 RMK CHINOOK
METAR K79S 100215Z AUTO 34004KT 10SM M16/M19 A3019 RMK FORT BENTON
METAR K38S 100215Z AUTO 00000KT 10SM M11/M14 A2996 RMK DEER LODGE
METAR K3U3 100215Z AUTO 00000KT 10SM M11/M15 A2992 RMK ANACONDA
METAR K6S5 100215Z AUTO 00000KT 2SM M10/M12 A3000 RMK HAMILTON
METAR KS59 100215Z AUTO 00000KT 2 1/2SM M11/M13 A3007 RMK LIBBY
METAR K88M 100215Z AUTO 00000KT 1 1/2SM M14/M17 A3012 RMK EUREKA



USA.gov is the U.S. government's official web portal to all federal, state and local government web resources and services.